createdAt,value
2023-02-17T00:01:27.335Z,10.05
2023-02-17T00:03:54.776Z,10.06
2023-02-17T00:06:29.437Z,10.07
2023-02-17T00:08:57.545Z,10.06
2023-02-17T00:11:24.652Z,10.07
2023-02-17T00:13:54.566Z,10.08
2023-02-17T00:16:25.942Z,10.07
2023-02-17T00:18:59.666Z,10.06
2023-02-17T00:21:30.361Z,10.06
2023-02-17T00:23:58.817Z,10.06
2023-02-17T00:26:25.819Z,10.06
2023-02-17T00:28:53.154Z,10.07
2023-02-17T00:31:22.726Z,10.07
2023-02-17T00:33:49.814Z,10.07
2023-02-17T00:36:19.482Z,10.07
2023-02-17T00:38:48.300Z,10.08
2023-02-17T00:41:19.219Z,10.10
2023-02-17T00:43:47.121Z,10.08
2023-02-17T00:46:17.888Z,10.07
2023-02-17T00:48:47.306Z,10.07
2023-02-17T00:51:16.176Z,10.07
2023-02-17T00:53:43.521Z,10.07
2023-02-17T00:56:10.988Z,10.05
2023-02-17T00:58:38.248Z,10.04
2023-02-17T01:01:05.504Z,10.03
2023-02-17T01:03:32.617Z,10.02
2023-02-17T01:05:59.841Z,10.00
2023-02-17T01:08:26.781Z,9.99
2023-02-17T01:10:53.915Z,9.98
2023-02-17T01:13:21.230Z,9.97
2023-02-17T01:15:52.655Z,9.96
2023-02-17T01:18:23.837Z,9.96
2023-02-17T01:20:51.700Z,9.95
2023-02-17T01:23:18.876Z,9.96
2023-02-17T01:25:48.906Z,9.95
2023-02-17T01:28:21.193Z,9.94
2023-02-17T01:30:49.413Z,9.94
2023-02-17T01:33:16.725Z,9.95
2023-02-17T01:35:44.782Z,9.95
2023-02-17T01:38:12.973Z,9.95
2023-02-17T01:40:48.107Z,9.96
2023-02-17T01:43:18.040Z,9.95
2023-02-17T01:46:02.844Z,9.97
2023-02-17T01:48:46.996Z,9.97
2023-02-17T01:51:23.110Z,9.98
2023-02-17T01:54:04.472Z,9.98
2023-02-17T01:56:32.980Z,10.00
2023-02-17T01:59:17.336Z,10.01
2023-02-17T02:01:45.012Z,10.01
2023-02-17T02:04:13.176Z,10.02
2023-02-17T02:06:44.509Z,10.03
2023-02-17T02:09:16.668Z,10.04
2023-02-17T02:11:43.602Z,10.07
2023-02-17T02:14:11.250Z,10.08
2023-02-17T02:17:10.504Z,10.08
2023-02-17T02:20:13.881Z,10.11
2023-02-17T02:23:21.767Z,10.14
2023-02-17T02:26:16.396Z,10.17
2023-02-17T02:29:37.276Z,10.20
2023-02-17T02:32:43.461Z,10.21
2023-02-17T02:35:38.069Z,10.23
2023-02-17T02:38:25.576Z,10.24
2023-02-17T02:41:41.230Z,10.26
2023-02-17T02:44:10.850Z,10.28
2023-02-17T02:46:38.027Z,10.30
2023-02-17T02:49:05.799Z,10.32
2023-02-17T02:51:46.550Z,10.33
2023-02-17T02:54:28.096Z,10.36
2023-02-17T02:57:30.908Z,10.38
2023-02-17T03:00:24.233Z,10.37
2023-02-17T03:03:20.271Z,10.39
2023-02-17T03:05:59.664Z,10.40
2023-02-17T03:08:35.003Z,10.40
2023-02-17T03:11:03.386Z,10.40
2023-02-17T03:13:39.299Z,10.41
2023-02-17T03:16:09.050Z,10.41
2023-02-17T03:18:36.568Z,10.40
2023-02-17T03:21:14.245Z,10.39
2023-02-17T03:23:42.165Z,10.40
2023-02-17T03:26:09.099Z,10.39
2023-02-17T03:28:36.114Z,10.37
2023-02-17T03:31:03.324Z,10.36
2023-02-17T03:33:30.322Z,10.36
2023-02-17T03:35:57.218Z,10.35
2023-02-17T03:38:24.273Z,10.35
2023-02-17T03:40:53.079Z,10.34
2023-02-17T03:43:20.056Z,10.35
2023-02-17T03:45:47.079Z,10.34
2023-02-17T03:48:14.024Z,10.33
2023-02-17T03:50:40.933Z,10.35
2023-02-17T03:53:07.887Z,10.33
2023-02-17T03:55:34.793Z,10.33
2023-02-17T03:58:01.687Z,10.33
2023-02-17T04:00:28.606Z,10.32
2023-02-17T04:02:56.981Z,10.31
2023-02-17T04:05:24.498Z,10.31
2023-02-17T04:07:52.725Z,10.31
2023-02-17T04:10:19.709Z,10.30
2023-02-17T04:12:46.648Z,10.29
2023-02-17T04:15:13.584Z,10.30
2023-02-17T04:17:40.570Z,10.28
2023-02-17T04:20:08.873Z,10.28
2023-02-17T04:22:35.803Z,10.28
2023-02-17T04:25:02.784Z,10.27
2023-02-17T04:27:29.712Z,10.28
2023-02-17T04:29:56.707Z,10.27
2023-02-17T04:32:23.670Z,10.26
2023-02-17T04:34:50.578Z,10.25
2023-02-17T04:37:17.506Z,10.25
2023-02-17T04:39:44.480Z,10.24
2023-02-17T04:42:11.393Z,10.24
2023-02-17T04:44:38.332Z,10.26
2023-02-17T04:47:05.326Z,10.24
2023-02-17T04:49:32.364Z,10.24
2023-02-17T04:51:59.272Z,10.24
2023-02-17T04:54:27.208Z,10.23
2023-02-17T04:56:54.122Z,10.24
2023-02-17T04:59:21.060Z,10.23
2023-02-17T05:01:47.963Z,10.24
2023-02-17T05:04:14.903Z,10.23
2023-02-17T05:06:41.832Z,10.23
2023-02-17T05:09:08.771Z,10.23
2023-02-17T05:11:35.686Z,10.22
2023-02-17T05:14:02.601Z,10.23
2023-02-17T05:16:29.507Z,10.23
2023-02-17T05:18:57.157Z,10.24
2023-02-17T05:21:24.133Z,10.22
2023-02-17T05:23:51.064Z,10.23
2023-02-17T05:26:17.990Z,10.23
2023-02-17T05:28:45.012Z,10.22
2023-02-17T05:31:12.983Z,10.22
2023-02-17T05:33:39.947Z,10.22
2023-02-17T05:36:09.712Z,10.23
2023-02-17T05:38:37.624Z,10.20
2023-02-17T05:41:05.182Z,10.21
2023-02-17T05:43:33.067Z,10.19
2023-02-17T05:46:04.890Z,10.19
2023-02-17T05:48:32.484Z,10.18
2023-02-17T05:50:59.603Z,10.17
2023-02-17T05:53:27.076Z,10.16
2023-02-17T05:55:54.233Z,10.16
2023-02-17T05:58:21.269Z,10.15
2023-02-17T06:00:48.657Z,10.16
2023-02-17T06:03:16.007Z,10.13
2023-02-17T06:05:44.522Z,10.12
2023-02-17T06:08:11.424Z,10.13
2023-02-17T06:10:38.366Z,10.11
2023-02-17T06:13:05.287Z,10.12
2023-02-17T06:15:32.216Z,10.10
2023-02-17T06:17:59.326Z,10.08
2023-02-17T06:20:26.351Z,10.07
2023-02-17T06:22:53.273Z,10.07
2023-02-17T06:25:20.194Z,10.06
2023-02-17T06:27:47.204Z,10.06
2023-02-17T06:30:15.008Z,10.06
2023-02-17T06:32:42.019Z,10.05
2023-02-17T06:35:09.103Z,10.03
2023-02-17T06:37:36.043Z,10.04
2023-02-17T06:40:03.519Z,10.04
2023-02-17T06:42:30.457Z,10.03
2023-02-17T06:44:58.564Z,10.04
2023-02-17T06:47:25.530Z,10.04
2023-02-17T06:49:52.458Z,10.04
2023-02-17T06:52:19.360Z,10.04
2023-02-17T06:54:47.251Z,10.04
2023-02-17T06:57:14.178Z,10.04
2023-02-17T06:59:41.093Z,10.05
2023-02-17T07:02:12.288Z,10.06
2023-02-17T07:04:41.193Z,10.05
2023-02-17T07:07:09.526Z,10.05
2023-02-17T07:09:38.452Z,10.05
2023-02-17T07:12:06.561Z,10.06
2023-02-17T07:14:35.078Z,10.06
2023-02-17T07:17:02.477Z,10.07
2023-02-17T07:19:29.567Z,10.07
2023-02-17T07:21:56.744Z,10.08
2023-02-17T07:24:23.715Z,10.09
2023-02-17T07:26:50.636Z,10.10
2023-02-17T07:29:17.537Z,10.09
2023-02-17T07:31:44.456Z,10.10
2023-02-17T07:34:11.409Z,10.12
2023-02-17T07:36:38.327Z,10.11
2023-02-17T07:39:05.376Z,10.12
2023-02-17T07:41:33.536Z,10.11
2023-02-17T07:44:08.362Z,10.10
2023-02-17T07:46:35.997Z,10.12
2023-02-17T07:49:03.810Z,10.14
2023-02-17T07:51:30.724Z,10.15
2023-02-17T07:53:57.725Z,10.16
2023-02-17T07:56:25.709Z,10.16
2023-02-17T07:58:52.691Z,10.17
2023-02-17T08:01:23.870Z,10.17
2023-02-17T08:03:51.262Z,10.17
2023-02-17T08:06:22.541Z,10.19
2023-02-17T08:09:09.793Z,10.19
2023-02-17T08:11:55.797Z,10.20
2023-02-17T08:14:26.877Z,10.21
2023-02-17T08:16:54.084Z,10.22
2023-02-17T08:19:21.143Z,10.23
2023-02-17T08:21:48.217Z,10.25
2023-02-17T08:24:16.255Z,10.25
2023-02-17T08:26:43.270Z,10.26
2023-02-17T08:29:10.263Z,10.27
2023-02-17T08:31:38.057Z,10.27
2023-02-17T08:34:08.106Z,10.29
2023-02-17T08:36:37.301Z,10.31
2023-02-17T08:39:07.447Z,10.31
2023-02-17T08:41:37.841Z,10.32
2023-02-17T08:44:12.199Z,10.32
2023-02-17T08:46:40.577Z,10.32
2023-02-17T08:49:07.864Z,10.34
2023-02-17T08:51:35.834Z,10.35
2023-02-17T08:54:06.331Z,10.38
2023-02-17T08:56:34.535Z,10.38
2023-02-17T08:59:01.659Z,10.38
2023-02-17T09:01:28.678Z,10.40
2023-02-17T09:03:58.327Z,10.41
2023-02-17T09:06:36.951Z,10.41
2023-02-17T09:09:06.101Z,10.42
2023-02-17T09:11:33.280Z,10.42
2023-02-17T09:14:00.249Z,10.44
2023-02-17T09:16:27.373Z,10.45
2023-02-17T09:18:55.068Z,10.45
2023-02-17T09:21:22.201Z,10.46
2023-02-17T09:23:49.646Z,10.45
2023-02-17T09:26:17.990Z,10.47
2023-02-17T09:28:46.194Z,10.48
2023-02-17T09:31:23.065Z,10.49
2023-02-17T09:33:51.115Z,10.50
2023-02-17T09:36:24.936Z,10.51
2023-02-17T09:38:52.541Z,10.52
2023-02-17T09:41:45.341Z,10.51
2023-02-17T09:44:44.653Z,10.54
2023-02-17T09:47:20.272Z,10.54
2023-02-17T09:50:06.999Z,10.56
2023-02-17T09:53:16.219Z,10.57
2023-02-17T09:55:49.305Z,10.57
2023-02-17T09:58:26.057Z,10.57
2023-02-17T10:00:58.205Z,10.57
2023-02-17T10:03:43.034Z,10.57
2023-02-17T10:06:29.162Z,10.55
2023-02-17T10:09:23.579Z,10.53
2023-02-17T10:12:13.735Z,10.51
2023-02-17T10:14:48.345Z,10.47
2023-02-17T10:17:37.647Z,10.48
2023-02-17T10:20:14.490Z,10.50
2023-02-17T10:22:48.105Z,10.49
2023-02-17T10:25:25.814Z,10.48
2023-02-17T10:28:08.348Z,10.49
2023-02-17T10:31:02.683Z,10.53
2023-02-17T10:33:32.614Z,10.52
2023-02-17T10:36:25.570Z,10.54
2023-02-17T10:39:01.373Z,10.55
2023-02-17T10:41:35.896Z,10.56
2023-02-17T10:44:11.660Z,10.58
2023-02-17T10:46:42.012Z,10.60
2023-02-17T10:49:33.106Z,10.60
2023-02-17T10:52:20.276Z,10.61
2023-02-17T10:55:11.417Z,10.61
2023-02-17T10:57:58.607Z,10.63
2023-02-17T11:00:26.779Z,10.62
2023-02-17T11:02:54.231Z,10.63
2023-02-17T11:05:34.261Z,10.64
2023-02-17T11:08:07.272Z,10.68
2023-02-17T11:10:41.306Z,10.70
2023-02-17T11:13:36.970Z,10.71
2023-02-17T11:16:05.546Z,10.73
2023-02-17T11:18:44.884Z,10.74
2023-02-17T11:21:12.293Z,10.75
2023-02-17T11:23:56.247Z,10.76
2023-02-17T11:26:30.895Z,10.80
2023-02-17T11:29:21.581Z,10.80
2023-02-17T11:32:00.995Z,10.81
2023-02-17T11:34:35.917Z,10.83
2023-02-17T11:37:24.427Z,10.85
2023-02-17T11:39:54.449Z,10.88
2023-02-17T11:42:31.495Z,10.90
2023-02-17T11:45:22.937Z,10.90
2023-02-17T11:48:25.541Z,10.95
2023-02-17T11:51:12.936Z,10.98
2023-02-17T11:54:21.139Z,11.00
2023-02-17T11:57:24.304Z,11.03
2023-02-17T12:00:12.637Z,11.06
2023-02-17T12:03:12.774Z,11.08
2023-02-17T12:06:16.156Z,11.09
2023-02-17T12:09:34.480Z,11.11
2023-02-17T12:12:23.133Z,11.14
2023-02-17T12:15:31.234Z,11.15
2023-02-17T12:18:36.929Z,11.17
2023-02-17T12:21:38.150Z,11.18
2023-02-17T12:24:17.125Z,11.19
2023-02-17T12:26:53.846Z,11.21
2023-02-17T12:29:43.621Z,11.22
2023-02-17T12:32:26.139Z,11.23
2023-02-17T12:35:34.773Z,11.27
2023-02-17T12:38:16.785Z,11.29
2023-02-17T12:40:57.926Z,11.32
2023-02-17T12:43:47.314Z,11.35
2023-02-17T12:46:23.994Z,11.37
2023-02-17T12:48:58.870Z,11.41
2023-02-17T12:51:53.146Z,11.45
2023-02-17T12:54:35.304Z,11.48
2023-02-17T12:57:14.944Z,11.51
2023-02-17T12:59:48.191Z,11.52
2023-02-17T13:02:22.216Z,11.54
2023-02-17T13:05:04.969Z,11.55
2023-02-17T13:08:16.121Z,11.58
2023-02-17T13:10:43.061Z,11.59
2023-02-17T13:13:25.440Z,11.58
2023-02-17T13:16:12.884Z,11.60
2023-02-17T13:18:50.052Z,11.59
2023-02-17T13:21:33.020Z,11.62
2023-02-17T13:24:12.388Z,11.63
2023-02-17T13:26:45.323Z,11.67
2023-02-17T13:29:24.728Z,11.70
2023-02-17T13:32:02.158Z,11.76
2023-02-17T13:34:39.475Z,11.82
2023-02-17T13:37:32.696Z,11.91
2023-02-17T13:40:18.877Z,11.99
2023-02-17T13:42:54.663Z,12.07
2023-02-17T13:45:28.054Z,12.20
2023-02-17T13:47:58.898Z,12.28
2023-02-17T13:50:37.907Z,12.36
2023-02-17T13:53:25.400Z,12.40
2023-02-17T13:55:55.397Z,12.42
2023-02-17T13:58:41.308Z,12.44
2023-02-17T14:01:27.075Z,12.42
2023-02-17T14:03:56.543Z,12.41
2023-02-17T14:06:36.551Z,12.40
2023-02-17T14:09:28.550Z,12.36
2023-02-17T14:11:58.674Z,12.33
2023-02-17T14:14:33.184Z,12.31
2023-02-17T14:17:31.522Z,12.27
2023-02-17T14:20:00.689Z,12.23
2023-02-17T14:22:33.955Z,12.22
2023-02-17T14:25:05.386Z,12.21
2023-02-17T14:27:50.883Z,12.17
2023-02-17T14:30:34.629Z,12.18
2023-02-17T14:33:16.515Z,12.17
2023-02-17T14:36:04.401Z,12.15
2023-02-17T14:38:37.156Z,12.15
2023-02-17T14:41:06.299Z,12.14
2023-02-17T14:43:33.641Z,12.13
2023-02-17T14:46:00.676Z,12.11
2023-02-17T14:48:28.310Z,12.10
2023-02-17T14:50:57.532Z,12.07
2023-02-17T14:53:31.358Z,12.07
2023-02-17T14:56:07.339Z,12.05
2023-02-17T14:58:35.232Z,12.05
2023-02-17T15:01:02.487Z,12.03
2023-02-17T15:03:29.478Z,12.02
2023-02-17T15:05:56.484Z,12.03
2023-02-17T15:08:33.151Z,12.03
2023-02-17T15:11:01.247Z,12.01
2023-02-17T15:13:28.240Z,12.00
2023-02-17T15:15:55.263Z,11.99
2023-02-17T15:18:22.248Z,11.99
2023-02-17T15:20:51.607Z,11.98
2023-02-17T15:23:23.711Z,11.97
2023-02-17T15:25:50.986Z,11.96
2023-02-17T15:28:20.304Z,11.96
2023-02-17T15:30:52.740Z,11.96
2023-02-17T15:33:22.363Z,11.96
2023-02-17T15:35:55.479Z,11.96
2023-02-17T15:38:24.212Z,11.96
2023-02-17T15:40:51.463Z,11.96
2023-02-17T15:43:21.907Z,11.95
2023-02-17T15:45:49.884Z,11.93
2023-02-17T15:48:24.386Z,11.92
2023-02-17T15:50:52.403Z,11.91
2023-02-17T15:53:20.054Z,11.90
2023-02-17T15:55:48.024Z,11.89
2023-02-17T15:58:19.002Z,11.88
2023-02-17T16:00:46.463Z,11.87
2023-02-17T16:03:14.651Z,11.86
2023-02-17T16:05:42.455Z,11.85
2023-02-17T16:08:09.610Z,11.83
2023-02-17T16:10:36.941Z,11.82
2023-02-17T16:13:04.207Z,11.82
2023-02-17T16:15:32.689Z,11.82
2023-02-17T16:17:59.858Z,11.82
2023-02-17T16:20:34.905Z,11.81
2023-02-17T16:23:02.829Z,11.80
2023-02-17T16:25:30.234Z,11.80
2023-02-17T16:27:57.689Z,11.77
2023-02-17T16:30:33.467Z,11.76
2023-02-17T16:33:01.582Z,11.75
2023-02-17T16:35:31.727Z,11.75
2023-02-17T16:38:29.850Z,11.72
2023-02-17T16:40:56.798Z,11.72
2023-02-17T16:43:27.557Z,11.70
2023-02-17T16:46:01.113Z,11.69
2023-02-17T16:48:31.975Z,11.69
2023-02-17T16:50:58.872Z,11.67
2023-02-17T16:53:26.603Z,11.66
2023-02-17T16:55:55.678Z,11.65
2023-02-17T16:58:26.236Z,11.65
2023-02-17T17:00:55.639Z,11.64
2023-02-17T17:03:22.745Z,11.63
2023-02-17T17:05:51.752Z,11.62
2023-02-17T17:08:21.290Z,11.63
2023-02-17T17:10:49.308Z,11.61
2023-02-17T17:13:16.415Z,11.61
2023-02-17T17:15:45.812Z,11.61
2023-02-17T17:18:21.066Z,11.61
2023-02-17T17:20:48.681Z,11.60
2023-02-17T17:23:16.841Z,11.59
2023-02-17T17:25:46.607Z,11.58
2023-02-17T17:28:19.036Z,11.57
2023-02-17T17:30:46.863Z,11.57
2023-02-17T17:33:14.232Z,11.57
2023-02-17T17:35:41.191Z,11.56
2023-02-17T17:38:13.141Z,11.55
2023-02-17T17:40:53.139Z,11.56
2023-02-17T17:43:22.022Z,11.55
2023-02-17T17:45:50.824Z,11.54
2023-02-17T17:48:18.708Z,11.52
2023-02-17T17:50:45.692Z,11.52
2023-02-17T17:53:12.616Z,11.52
2023-02-17T17:55:39.524Z,11.50
2023-02-17T17:58:06.457Z,11.50
2023-02-17T18:00:33.433Z,11.50
2023-02-17T18:03:00.429Z,11.47
2023-02-17T18:05:28.238Z,11.46
2023-02-17T18:07:56.259Z,11.45
2023-02-17T18:10:23.349Z,11.44
2023-02-17T18:12:50.444Z,11.42
2023-02-17T18:15:18.500Z,11.42
2023-02-17T18:17:47.681Z,11.41
2023-02-17T18:20:15.074Z,11.41
2023-02-17T18:22:42.001Z,11.39
2023-02-17T18:25:09.626Z,11.38
2023-02-17T18:27:46.320Z,11.36
2023-02-17T18:30:20.617Z,11.37
2023-02-17T18:32:48.236Z,11.36
2023-02-17T18:35:15.637Z,11.36
2023-02-17T18:37:43.108Z,11.36
2023-02-17T18:40:12.552Z,11.34
2023-02-17T18:42:42.069Z,11.33
2023-02-17T18:45:09.508Z,11.34
2023-02-17T18:47:36.445Z,11.34
2023-02-17T18:50:06.707Z,11.35
2023-02-17T18:52:33.662Z,11.34
2023-02-17T18:55:00.593Z,11.34
2023-02-17T18:57:27.582Z,11.34
2023-02-17T18:59:54.527Z,11.33
2023-02-17T19:02:22.124Z,11.33
2023-02-17T19:04:54.536Z,11.32
2023-02-17T19:07:22.052Z,11.32
2023-02-17T19:09:53.439Z,11.31
2023-02-17T19:12:20.756Z,11.31
2023-02-17T19:14:52.944Z,11.30
2023-02-17T19:17:19.916Z,11.29
2023-02-17T19:19:46.901Z,11.29
2023-02-17T19:22:13.831Z,11.28
2023-02-17T19:24:42.091Z,11.29
2023-02-17T19:27:10.619Z,11.28
2023-02-17T19:29:37.645Z,11.28
2023-02-17T19:32:04.886Z,11.26
2023-02-17T19:34:32.306Z,11.26
2023-02-17T19:36:59.430Z,11.25
2023-02-17T19:39:26.365Z,11.25
2023-02-17T19:41:53.351Z,11.24
2023-02-17T19:44:20.354Z,11.24
2023-02-17T19:46:47.564Z,11.23
2023-02-17T19:49:15.070Z,11.22
2023-02-17T19:51:41.984Z,11.22
2023-02-17T19:54:08.946Z,11.23
2023-02-17T19:56:37.200Z,11.21
2023-02-17T19:59:04.541Z,11.21
2023-02-17T20:01:34.078Z,11.20
2023-02-17T20:04:05.492Z,11.19
2023-02-17T20:06:40.276Z,11.18
2023-02-17T20:09:25.441Z,11.18
2023-02-17T20:11:53.065Z,11.17
2023-02-17T20:14:21.284Z,11.18
2023-02-17T20:16:53.254Z,11.18
2023-02-17T20:19:20.349Z,11.20
2023-02-17T20:21:47.476Z,11.21
2023-02-17T20:24:15.297Z,11.20
2023-02-17T20:26:46.357Z,11.21
2023-02-17T20:29:14.031Z,11.22
2023-02-17T20:31:42.060Z,11.22
2023-02-17T20:34:25.914Z,11.24
2023-02-17T20:36:53.375Z,11.25
2023-02-17T20:39:20.532Z,11.27
2023-02-17T20:41:47.663Z,11.27
2023-02-17T20:44:14.676Z,11.29
2023-02-17T20:46:43.029Z,11.30
2023-02-17T20:49:11.246Z,11.30
2023-02-17T20:51:38.597Z,11.31
2023-02-17T20:54:05.617Z,11.32
2023-02-17T20:56:37.219Z,11.33
2023-02-17T20:59:05.642Z,11.33
2023-02-17T21:01:33.000Z,11.35
2023-02-17T21:03:59.978Z,11.36
2023-02-17T21:06:34.465Z,11.36
2023-02-17T21:09:05.978Z,11.38
2023-02-17T21:11:33.672Z,11.38
2023-02-17T21:14:00.843Z,11.39
2023-02-17T21:16:31.269Z,11.39
2023-02-17T21:19:00.174Z,11.41
2023-02-17T21:21:29.377Z,11.41
2023-02-17T21:23:59.588Z,11.42
2023-02-17T21:26:27.515Z,11.43
2023-02-17T21:28:55.169Z,11.43
2023-02-17T21:31:22.423Z,11.45
2023-02-17T21:33:49.414Z,11.46
2023-02-17T21:36:18.210Z,11.47
2023-02-17T21:38:46.232Z,11.47
2023-02-17T21:41:26.393Z,11.48
2023-02-17T21:44:12.950Z,11.48
2023-02-17T21:46:42.076Z,11.51
2023-02-17T21:49:09.595Z,11.50
2023-02-17T21:51:38.875Z,11.50
2023-02-17T21:54:07.069Z,11.52
2023-02-17T21:56:34.108Z,11.52
2023-02-17T21:59:01.027Z,11.53
2023-02-17T22:01:29.040Z,11.53
2023-02-17T22:03:57.622Z,11.53
2023-02-17T22:06:29.655Z,11.54
2023-02-17T22:08:59.311Z,11.55
2023-02-17T22:11:32.573Z,11.55
2023-02-17T22:14:03.019Z,11.56
2023-02-17T22:16:33.287Z,11.56
2023-02-17T22:19:01.301Z,11.55
2023-02-17T22:21:28.975Z,11.57
2023-02-17T22:24:01.158Z,11.57
2023-02-17T22:26:29.663Z,11.57
2023-02-17T22:28:57.645Z,11.59
2023-02-17T22:31:28.595Z,11.60
2023-02-17T22:33:56.873Z,11.60
2023-02-17T22:36:25.032Z,11.61
2023-02-17T22:38:52.523Z,11.61
2023-02-17T22:41:22.533Z,11.62
2023-02-17T22:43:51.595Z,11.63
2023-02-17T22:46:21.701Z,11.63
2023-02-17T22:48:51.374Z,11.63
2023-02-17T22:51:23.327Z,11.66
2023-02-17T22:53:50.415Z,11.65
2023-02-17T22:56:17.416Z,11.67
2023-02-17T22:58:44.345Z,11.67
2023-02-17T23:01:21.173Z,11.66
2023-02-17T23:04:07.263Z,11.66
2023-02-17T23:06:38.374Z,11.66
2023-02-17T23:09:08.112Z,11.65
2023-02-17T23:11:53.617Z,11.67
2023-02-17T23:14:33.500Z,11.66
2023-02-17T23:17:09.267Z,11.65
2023-02-17T23:19:37.514Z,11.67
2023-02-17T23:22:15.836Z,11.66
2023-02-17T23:24:45.248Z,11.67
2023-02-17T23:27:13.224Z,11.67
2023-02-17T23:29:41.700Z,11.66
2023-02-17T23:32:09.247Z,11.67
2023-02-17T23:34:36.295Z,11.67
2023-02-17T23:37:03.288Z,11.66
2023-02-17T23:39:32.596Z,11.66
2023-02-17T23:41:59.577Z,11.66
2023-02-17T23:44:26.472Z,11.65
2023-02-17T23:46:53.466Z,11.65
2023-02-17T23:49:20.822Z,11.64
2023-02-17T23:51:48.042Z,11.64
2023-02-17T23:54:15.699Z,11.63
2023-02-17T23:56:43.338Z,11.63
2023-02-17T23:59:10.951Z,11.63
